Western Head, Canada
Current Conditions -  °F | °C
As of 12:00 AM on Tuesday 23 Dec 2014 (Local Time) from CYZX Reporting Station
Scattered Clouds Scattered Clouds  
Wind Chill: 27°   Ceiling: Unl
Heat Index: 27°   Visibility: 15mi
Dew Point: 23°   Wind: 3mph
Humidity: 86%   Direction: 60°ENE
Pressure: 30.46"   Gusts: NA
Location:  43.99°N, 64.68°W
Report Text: CYZX 230400Z 06003KT 15SM SCT026 M03/M05 A3046 RMK SC4 WNDY HILL 11007KT SLP318
Loading
Personal Weather Stations






























Interactive Weather Map New forecast layout! Learn more

10-Day Weather Forecast

Advertisements
Track Severe Weather on mobile